sensor_id;sensor_type;location;lat;lon;timestamp;P1;durP1;ratioP1;P2;durP2;ratioP2
41219;SDS011;26951;47.338;9.196;2023-04-03T00:02:11;2.22;;;2.03;;
41219;SDS011;26951;47.338;9.196;2023-04-03T00:04:55;2.08;;;1.88;;
41219;SDS011;26951;47.338;9.196;2023-04-03T00:07:40;2.50;;;2.30;;
41219;SDS011;26951;47.338;9.196;2023-04-03T00:10:24;2.40;;;2.20;;
41219;SDS011;26951;47.338;9.196;2023-04-03T00:13:08;2.22;;;1.80;;
41219;SDS011;26951;47.338;9.196;2023-04-03T00:15:53;2.28;;;1.90;;
41219;SDS011;26951;47.338;9.196;2023-04-03T00:18:37;2.20;;;1.92;;
41219;SDS011;26951;47.338;9.196;2023-04-03T00:21:23;1.85;;;1.70;;
41219;SDS011;26951;47.338;9.196;2023-04-03T00:24:07;2.10;;;1.90;;
41219;SDS011;26951;47.338;9.196;2023-04-03T00:26:51;2.03;;;1.70;;
41219;SDS011;26951;47.338;9.196;2023-04-03T00:29:35;1.50;;;1.35;;
41219;SDS011;26951;47.338;9.196;2023-04-03T00:32:20;1.38;;;1.25;;
41219;SDS011;26951;47.338;9.196;2023-04-03T00:35:04;1.63;;;1.50;;
41219;SDS011;26951;47.338;9.196;2023-04-03T00:37:52;1.80;;;1.70;;
41219;SDS011;26951;47.338;9.196;2023-04-03T00:40:39;1.90;;;1.60;;
41219;SDS011;26951;47.338;9.196;2023-04-03T00:43:27;1.88;;;1.50;;
41219;SDS011;26951;47.338;9.196;2023-04-03T00:46:11;1.85;;;1.65;;
41219;SDS011;26951;47.338;9.196;2023-04-03T00:48:56;2.25;;;1.88;;
41219;SDS011;26951;47.338;9.196;2023-04-03T00:51:40;2.20;;;1.70;;
41219;SDS011;26951;47.338;9.196;2023-04-03T00:54:24;1.73;;;1.63;;
41219;SDS011;26951;47.338;9.196;2023-04-03T00:57:09;1.88;;;1.67;;
41219;SDS011;26951;47.338;9.196;2023-04-03T00:59:59;2.03;;;1.77;;
41219;SDS011;26951;47.338;9.196;2023-04-03T01:02:50;2.28;;;2.08;;
41219;SDS011;26951;47.338;9.196;2023-04-03T01:05:35;2.17;;;1.95;;
41219;SDS011;26951;47.338;9.196;2023-04-03T01:08:19;2.75;;;2.03;;
41219;SDS011;26951;47.338;9.196;2023-04-03T01:11:03;2.70;;;2.30;;
41219;SDS011;26951;47.338;9.196;2023-04-03T01:13:48;2.75;;;2.40;;
41219;SDS011;26951;47.338;9.196;2023-04-03T01:16:33;3.20;;;2.33;;
41219;SDS011;26951;47.338;9.196;2023-04-03T01:19:17;2.53;;;2.33;;
41219;SDS011;26951;47.338;9.196;2023-04-03T01:22:09;2.22;;;2.03;;
41219;SDS011;26951;47.338;9.196;2023-04-03T01:25:02;2.47;;;1.67;;
41219;SDS011;26951;47.338;9.196;2023-04-03T01:27:46;2.03;;;1.83;;
41219;SDS011;26951;47.338;9.196;2023-04-03T01:30:31;1.55;;;1.45;;
41219;SDS011;26951;47.338;9.196;2023-04-03T01:33:23;2.00;;;1.80;;
41219;SDS011;26951;47.338;9.196;2023-04-03T01:36:08;2.63;;;2.10;;
41219;SDS011;26951;47.338;9.196;2023-04-03T01:38:53;3.33;;;2.20;;
41219;SDS011;26951;47.338;9.196;2023-04-03T01:41:37;2.38;;;1.90;;
41219;SDS011;26951;47.338;9.196;2023-04-03T01:44:21;2.65;;;2.42;;
41219;SDS011;26951;47.338;9.196;2023-04-03T01:47:06;2.88;;;2.30;;
41219;SDS011;26951;47.338;9.196;2023-04-03T01:49:50;3.42;;;2.97;;
41219;SDS011;26951;47.338;9.196;2023-04-03T01:52:35;3.60;;;3.00;;
41219;SDS011;26951;47.338;9.196;2023-04-03T01:55:19;3.38;;;3.08;;
41219;SDS011;26951;47.338;9.196;2023-04-03T01:58:03;5.68;;;3.40;;
41219;SDS011;26951;47.338;9.196;2023-04-03T02:00:48;3.85;;;3.20;;
41219;SDS011;26951;47.338;9.196;2023-04-03T02:03:32;3.97;;;3.13;;
41219;SDS011;26951;47.338;9.196;2023-04-03T02:06:16;3.40;;;3.08;;
41219;SDS011;26951;47.338;9.196;2023-04-03T02:09:00;4.20;;;3.40;;
41219;SDS011;26951;47.338;9.196;2023-04-03T02:11:44;5.25;;;3.92;;
41219;SDS011;26951;47.338;9.196;2023-04-03T02:14:28;4.88;;;3.22;;
41219;SDS011;26951;47.338;9.196;2023-04-03T02:17:13;4.40;;;3.50;;
41219;SDS011;26951;47.338;9.196;2023-04-03T02:19:57;4.63;;;3.60;;
41219;SDS011;26951;47.338;9.196;2023-04-03T02:22:41;4.45;;;3.67;;
41219;SDS011;26951;47.338;9.196;2023-04-03T02:25:26;3.72;;;3.42;;
41219;SDS011;26951;47.338;9.196;2023-04-03T02:28:09;4.25;;;3.60;;
41219;SDS011;26951;47.338;9.196;2023-04-03T02:30:54;4.95;;;4.00;;
41219;SDS011;26951;47.338;9.196;2023-04-03T02:33:38;6.10;;;4.55;;
41219;SDS011;26951;47.338;9.196;2023-04-03T02:36:22;5.85;;;4.65;;
41219;SDS011;26951;47.338;9.196;2023-04-03T02:39:06;6.93;;;5.45;;
41219;SDS011;26951;47.338;9.196;2023-04-03T02:41:51;7.07;;;5.57;;
41219;SDS011;26951;47.338;9.196;2023-04-03T02:44:35;6.57;;;5.35;;
41219;SDS011;26951;47.338;9.196;2023-04-03T02:47:19;6.05;;;4.97;;
41219;SDS011;26951;47.338;9.196;2023-04-03T02:50:03;6.75;;;5.95;;
41219;SDS011;26951;47.338;9.196;2023-04-03T02:52:48;7.63;;;6.18;;
41219;SDS011;26951;47.338;9.196;2023-04-03T02:55:33;8.68;;;5.57;;
41219;SDS011;26951;47.338;9.196;2023-04-03T02:58:17;6.32;;;5.30;;
41219;SDS011;26951;47.338;9.196;2023-04-03T03:01:01;6.97;;;5.72;;
41219;SDS011;26951;47.338;9.196;2023-04-03T03:03:45;6.67;;;4.83;;
41219;SDS011;26951;47.338;9.196;2023-04-03T03:06:29;7.10;;;5.72;;
41219;SDS011;26951;47.338;9.196;2023-04-03T03:09:13;7.10;;;5.57;;
41219;SDS011;26951;47.338;9.196;2023-04-03T03:11:58;7.53;;;5.82;;
41219;SDS011;26951;47.338;9.196;2023-04-03T03:14:42;6.45;;;5.32;;
41219;SDS011;26951;47.338;9.196;2023-04-03T03:17:26;7.57;;;5.65;;
41219;SDS011;26951;47.338;9.196;2023-04-03T03:20:10;7.47;;;5.70;;
41219;SDS011;26951;47.338;9.196;2023-04-03T03:22:57;6.15;;;5.32;;
41219;SDS011;26951;47.338;9.196;2023-04-03T03:25:41;7.50;;;5.85;;
41219;SDS011;26951;47.338;9.196;2023-04-03T03:28:25;7.50;;;5.82;;
41219;SDS011;26951;47.338;9.196;2023-04-03T03:31:09;6.38;;;5.32;;
41219;SDS011;26951;47.338;9.196;2023-04-03T03:33:54;7.90;;;5.97;;
41219;SDS011;26951;47.338;9.196;2023-04-03T03:36:38;7.90;;;6.18;;
41219;SDS011;26951;47.338;9.196;2023-04-03T03:39:22;8.52;;;6.63;;
41219;SDS011;26951;47.338;9.196;2023-04-03T03:42:06;9.18;;;6.57;;
41219;SDS011;26951;47.338;9.196;2023-04-03T03:44:51;9.80;;;6.72;;
41219;SDS011;26951;47.338;9.196;2023-04-03T03:47:35;8.75;;;6.75;;
41219;SDS011;26951;47.338;9.196;2023-04-03T03:50:19;8.07;;;6.70;;
41219;SDS011;26951;47.338;9.196;2023-04-03T03:53:03;8.18;;;6.30;;
41219;SDS011;26951;47.338;9.196;2023-04-03T03:55:48;8.13;;;6.18;;
41219;SDS011;26951;47.338;9.196;2023-04-03T03:58:33;8.88;;;6.68;;
41219;SDS011;26951;47.338;9.196;2023-04-03T04:01:17;8.73;;;6.80;;
41219;SDS011;26951;47.338;9.196;2023-04-03T04:04:01;7.90;;;7.10;;
41219;SDS011;26951;47.338;9.196;2023-04-03T04:06:45;9.52;;;7.10;;
41219;SDS011;26951;47.338;9.196;2023-04-03T04:09:29;9.57;;;6.13;;
41219;SDS011;26951;47.338;9.196;2023-04-03T04:12:14;8.23;;;6.97;;
41219;SDS011;26951;47.338;9.196;2023-04-03T04:14:59;8.95;;;6.57;;
41219;SDS011;26951;47.338;9.196;2023-04-03T04:17:43;9.57;;;6.72;;
41219;SDS011;26951;47.338;9.196;2023-04-03T04:20:27;8.38;;;6.22;;
41219;SDS011;26951;47.338;9.196;2023-04-03T04:23:11;9.38;;;6.90;;
41219;SDS011;26951;47.338;9.196;2023-04-03T04:25:55;8.95;;;6.50;;
41219;SDS011;26951;47.338;9.196;2023-04-03T04:28:39;9.55;;;6.60;;
41219;SDS011;26951;47.338;9.196;2023-04-03T04:31:23;10.35;;;6.88;;
41219;SDS011;26951;47.338;9.196;2023-04-03T04:34:08;8.40;;;6.45;;
41219;SDS011;26951;47.338;9.196;2023-04-03T04:36:52;7.38;;;6.53;;
41219;SDS011;26951;47.338;9.196;2023-04-03T04:39:36;8.48;;;6.40;;
41219;SDS011;26951;47.338;9.196;2023-04-03T04:42:20;7.50;;;6.15;;
41219;SDS011;26951;47.338;9.196;2023-04-03T04:45:04;8.18;;;6.05;;
41219;SDS011;26951;47.338;9.196;2023-04-03T04:47:49;7.72;;;5.72;;
41219;SDS011;26951;47.338;9.196;2023-04-03T04:50:35;8.32;;;5.80;;
41219;SDS011;26951;47.338;9.196;2023-04-03T04:53:19;7.13;;;5.88;;
41219;SDS011;26951;47.338;9.196;2023-04-03T04:56:03;6.47;;;5.05;;
41219;SDS011;26951;47.338;9.196;2023-04-03T04:58:48;7.15;;;5.22;;
41219;SDS011;26951;47.338;9.196;2023-04-03T05:01:33;6.32;;;5.38;;
41219;SDS011;26951;47.338;9.196;2023-04-03T05:04:17;5.80;;;4.65;;
41219;SDS011;26951;47.338;9.196;2023-04-03T05:07:01;8.80;;;6.43;;
41219;SDS011;26951;47.338;9.196;2023-04-03T05:09:45;7.50;;;5.65;;
41219;SDS011;26951;47.338;9.196;2023-04-03T05:12:29;7.07;;;5.50;;
41219;SDS011;26951;47.338;9.196;2023-04-03T05:15:13;7.32;;;5.68;;
41219;SDS011;26951;47.338;9.196;2023-04-03T05:17:57;6.45;;;5.45;;
41219;SDS011;26951;47.338;9.196;2023-04-03T05:20:42;8.10;;;5.85;;
41219;SDS011;26951;47.338;9.196;2023-04-03T05:23:27;6.95;;;5.60;;
41219;SDS011;26951;47.338;9.196;2023-04-03T05:26:11;8.43;;;5.40;;
41219;SDS011;26951;47.338;9.196;2023-04-03T05:28:55;8.05;;;6.20;;
41219;SDS011;26951;47.338;9.196;2023-04-03T05:31:40;8.30;;;6.43;;
41219;SDS011;26951;47.338;9.196;2023-04-03T05:34:24;8.00;;;5.80;;
41219;SDS011;26951;47.338;9.196;2023-04-03T05:37:08;7.32;;;5.95;;
41219;SDS011;26951;47.338;9.196;2023-04-03T05:39:53;7.72;;;6.25;;
41219;SDS011;26951;47.338;9.196;2023-04-03T05:42:37;8.30;;;5.93;;
41219;SDS011;26951;47.338;9.196;2023-04-03T05:45:21;7.63;;;6.57;;
41219;SDS011;26951;47.338;9.196;2023-04-03T05:48:05;9.70;;;7.28;;
41219;SDS011;26951;47.338;9.196;2023-04-03T05:50:49;9.80;;;7.10;;
41219;SDS011;26951;47.338;9.196;2023-04-03T05:53:35;9.90;;;7.75;;
41219;SDS011;26951;47.338;9.196;2023-04-03T05:56:23;8.50;;;6.75;;
41219;SDS011;26951;47.338;9.196;2023-04-03T05:59:07;9.88;;;7.40;;
41219;SDS011;26951;47.338;9.196;2023-04-03T06:01:51;9.30;;;7.50;;
41219;SDS011;26951;47.338;9.196;2023-04-03T06:04:35;13.80;;;7.88;;
41219;SDS011;26951;47.338;9.196;2023-04-03T06:07:22;12.50;;;7.70;;
41219;SDS011;26951;47.338;9.196;2023-04-03T06:10:07;10.48;;;7.63;;
41219;SDS011;26951;47.338;9.196;2023-04-03T06:12:52;9.03;;;6.37;;
41219;SDS011;26951;47.338;9.196;2023-04-03T06:15:36;23.55;;;8.52;;
41219;SDS011;26951;47.338;9.196;2023-04-03T06:18:22;9.40;;;8.07;;
41219;SDS011;26951;47.338;9.196;2023-04-03T06:21:06;9.95;;;7.90;;
41219;SDS011;26951;47.338;9.196;2023-04-03T06:23:51;10.60;;;6.75;;
41219;SDS011;26951;47.338;9.196;2023-04-03T06:26:35;11.20;;;7.57;;
41219;SDS011;26951;47.338;9.196;2023-04-03T06:29:19;10.38;;;7.43;;
41219;SDS011;26951;47.338;9.196;2023-04-03T06:32:04;12.00;;;7.83;;
41219;SDS011;26951;47.338;9.196;2023-04-03T06:34:49;11.05;;;7.18;;
41219;SDS011;26951;47.338;9.196;2023-04-03T06:37:33;11.18;;;6.90;;
41219;SDS011;26951;47.338;9.196;2023-04-03T06:40:19;8.05;;;6.75;;
41219;SDS011;26951;47.338;9.196;2023-04-03T06:43:05;9.20;;;6.80;;
41219;SDS011;26951;47.338;9.196;2023-04-03T06:45:50;9.30;;;7.53;;
41219;SDS011;26951;47.338;9.196;2023-04-03T06:48:35;10.32;;;7.15;;
41219;SDS011;26951;47.338;9.196;2023-04-03T06:51:20;10.05;;;7.78;;
41219;SDS011;26951;47.338;9.196;2023-04-03T06:54:14;12.35;;;8.48;;
41219;SDS011;26951;47.338;9.196;2023-04-03T06:56:58;11.05;;;8.32;;
41219;SDS011;26951;47.338;9.196;2023-04-03T06:59:42;10.85;;;7.28;;
41219;SDS011;26951;47.338;9.196;2023-04-03T07:02:27;10.32;;;8.52;;
41219;SDS011;26951;47.338;9.196;2023-04-03T07:05:11;9.63;;;7.57;;
41219;SDS011;26951;47.338;9.196;2023-04-03T07:07:55;11.43;;;7.75;;
41219;SDS011;26951;47.338;9.196;2023-04-03T07:10:39;10.90;;;8.48;;
41219;SDS011;26951;47.338;9.196;2023-04-03T07:13:24;8.93;;;7.45;;
41219;SDS011;26951;47.338;9.196;2023-04-03T07:16:08;10.15;;;7.85;;
41219;SDS011;26951;47.338;9.196;2023-04-03T07:18:52;10.27;;;7.53;;
41219;SDS011;26951;47.338;9.196;2023-04-03T07:21:37;11.13;;;8.60;;
41219;SDS011;26951;47.338;9.196;2023-04-03T07:24:21;10.23;;;7.72;;
41219;SDS011;26951;47.338;9.196;2023-04-03T07:27:05;10.10;;;8.07;;
41219;SDS011;26951;47.338;9.196;2023-04-03T07:29:49;8.82;;;6.95;;
41219;SDS011;26951;47.338;9.196;2023-04-03T07:32:33;9.77;;;6.95;;
41219;SDS011;26951;47.338;9.196;2023-04-03T07:35:19;10.05;;;7.75;;
41219;SDS011;26951;47.338;9.196;2023-04-03T07:38:02;10.38;;;7.45;;
41219;SDS011;26951;47.338;9.196;2023-04-03T07:40:47;9.63;;;7.20;;
41219;SDS011;26951;47.338;9.196;2023-04-03T07:43:32;7.70;;;6.70;;
41219;SDS011;26951;47.338;9.196;2023-04-03T07:46:18;10.90;;;8.15;;
41219;SDS011;26951;47.338;9.196;2023-04-03T07:49:02;9.40;;;7.28;;
41219;SDS011;26951;47.338;9.196;2023-04-03T07:51:46;9.02;;;7.53;;
41219;SDS011;26951;47.338;9.196;2023-04-03T07:54:32;8.35;;;6.93;;
41219;SDS011;26951;47.338;9.196;2023-04-03T07:57:17;11.40;;;8.02;;
41219;SDS011;26951;47.338;9.196;2023-04-03T08:00:01;9.73;;;7.80;;
41219;SDS011;26951;47.338;9.196;2023-04-03T08:02:46;11.02;;;7.32;;
41219;SDS011;26951;47.338;9.196;2023-04-03T08:05:37;10.15;;;7.00;;
41219;SDS011;26951;47.338;9.196;2023-04-03T08:08:26;9.35;;;6.85;;
41219;SDS011;26951;47.338;9.196;2023-04-03T08:11:13;9.75;;;6.40;;
41219;SDS011;26951;47.338;9.196;2023-04-03T08:13:58;10.30;;;7.40;;
41219;SDS011;26951;47.338;9.196;2023-04-03T08:16:42;9.07;;;7.05;;
41219;SDS011;26951;47.338;9.196;2023-04-03T08:19:28;9.40;;;7.10;;
41219;SDS011;26951;47.338;9.196;2023-04-03T08:22:12;8.55;;;6.50;;
41219;SDS011;26951;47.338;9.196;2023-04-03T08:24:56;7.75;;;6.30;;
41219;SDS011;26951;47.338;9.196;2023-04-03T08:27:40;9.82;;;6.50;;
41219;SDS011;26951;47.338;9.196;2023-04-03T08:30:24;7.70;;;6.30;;
41219;SDS011;26951;47.338;9.196;2023-04-03T08:33:09;6.97;;;5.65;;
41219;SDS011;26951;47.338;9.196;2023-04-03T08:35:54;8.98;;;6.55;;
41219;SDS011;26951;47.338;9.196;2023-04-03T08:38:38;7.43;;;6.00;;
41219;SDS011;26951;47.338;9.196;2023-04-03T08:44:14;8.32;;;6.40;;
41219;SDS011;26951;47.338;9.196;2023-04-03T08:47:17;7.35;;;5.75;;
41219;SDS011;26951;47.338;9.196;2023-04-03T08:50:12;9.23;;;6.03;;
41219;SDS011;26951;47.338;9.196;2023-04-03T08:53:03;8.77;;;6.60;;
41219;SDS011;26951;47.338;9.196;2023-04-03T08:55:50;8.15;;;6.88;;
41219;SDS011;26951;47.338;9.196;2023-04-03T08:58:41;7.80;;;5.68;;
41219;SDS011;26951;47.338;9.196;2023-04-03T09:01:36;8.18;;;6.25;;
41219;SDS011;26951;47.338;9.196;2023-04-03T09:04:22;7.05;;;5.45;;
41219;SDS011;26951;47.338;9.196;2023-04-03T09:07:13;7.88;;;6.00;;
41219;SDS011;26951;47.338;9.196;2023-04-03T09:10:04;8.25;;;6.65;;
41219;SDS011;26951;47.338;9.196;2023-04-03T09:22:26;7.00;;;5.65;;
41219;SDS011;26951;47.338;9.196;2023-04-03T09:25:17;8.25;;;6.35;;
41219;SDS011;26951;47.338;9.196;2023-04-03T09:28:05;8.25;;;6.63;;
41219;SDS011;26951;47.338;9.196;2023-04-03T09:30:53;8.27;;;6.30;;
41219;SDS011;26951;47.338;9.196;2023-04-03T09:33:37;8.02;;;6.28;;
41219;SDS011;26951;47.338;9.196;2023-04-03T09:39:29;7.63;;;5.68;;
41219;SDS011;26951;47.338;9.196;2023-04-03T09:42:18;9.55;;;6.88;;
41219;SDS011;26951;47.338;9.196;2023-04-03T09:45:18;9.38;;;6.40;;
41219;SDS011;26951;47.338;9.196;2023-04-03T09:50:58;8.65;;;6.90;;
41219;SDS011;26951;47.338;9.196;2023-04-03T09:53:44;8.55;;;6.45;;
41219;SDS011;26951;47.338;9.196;2023-04-03T09:56:29;7.32;;;5.55;;
41219;SDS011;26951;47.338;9.196;2023-04-03T09:59:15;7.75;;;6.07;;
41219;SDS011;26951;47.338;9.196;2023-04-03T10:02:15;6.40;;;5.50;;
41219;SDS011;26951;47.338;9.196;2023-04-03T10:11:10;6.85;;;5.68;;
41219;SDS011;26951;47.338;9.196;2023-04-03T10:13:58;7.60;;;6.30;;
41219;SDS011;26951;47.338;9.196;2023-04-03T10:16:56;8.00;;;5.93;;
41219;SDS011;26951;47.338;9.196;2023-04-03T10:23:33;7.50;;;6.47;;
41219;SDS011;26951;47.338;9.196;2023-04-03T10:27:01;7.55;;;6.10;;
41219;SDS011;26951;47.338;9.196;2023-04-03T10:39:06;8.48;;;6.35;;
41219;SDS011;26951;47.338;9.196;2023-04-03T10:54:20;7.15;;;5.72;;
41219;SDS011;26951;47.338;9.196;2023-04-03T10:57:10;7.00;;;5.88;;
41219;SDS011;26951;47.338;9.196;2023-04-03T11:00:05;8.43;;;6.63;;
41219;SDS011;26951;47.338;9.196;2023-04-03T11:03:03;6.32;;;5.43;;
41219;SDS011;26951;47.338;9.196;2023-04-03T11:05:53;6.22;;;5.60;;
41219;SDS011;26951;47.338;9.196;2023-04-03T11:11:47;6.40;;;5.43;;
41219;SDS011;26951;47.338;9.196;2023-04-03T11:14:35;6.68;;;5.22;;
41219;SDS011;26951;47.338;9.196;2023-04-03T11:17:25;8.48;;;6.25;;
41219;SDS011;26951;47.338;9.196;2023-04-03T11:20:26;5.60;;;4.85;;
41219;SDS011;26951;47.338;9.196;2023-04-03T11:23:25;7.05;;;5.55;;
41219;SDS011;26951;47.338;9.196;2023-04-03T11:26:13;7.28;;;5.40;;
41219;SDS011;26951;47.338;9.196;2023-04-03T11:29:01;6.25;;;5.07;;
41219;SDS011;26951;47.338;9.196;2023-04-03T11:32:01;6.65;;;5.38;;
41219;SDS011;26951;47.338;9.196;2023-04-03T11:35:05;6.68;;;5.95;;
41219;SDS011;26951;47.338;9.196;2023-04-03T11:37:51;7.05;;;5.72;;
41219;SDS011;26951;47.338;9.196;2023-04-03T11:40:36;7.25;;;5.22;;
41219;SDS011;26951;47.338;9.196;2023-04-03T11:43:24;6.97;;;5.78;;
41219;SDS011;26951;47.338;9.196;2023-04-03T11:46:13;7.13;;;6.07;;
41219;SDS011;26951;47.338;9.196;2023-04-03T11:48:57;6.38;;;5.72;;
41219;SDS011;26951;47.338;9.196;2023-04-03T11:51:41;7.13;;;6.07;;
41219;SDS011;26951;47.338;9.196;2023-04-03T11:54:46;7.80;;;6.13;;
41219;SDS011;26951;47.338;9.196;2023-04-03T11:57:45;7.03;;;6.00;;
41219;SDS011;26951;47.338;9.196;2023-04-03T12:03:56;7.75;;;6.18;;
41219;SDS011;26951;47.338;9.196;2023-04-03T12:06:50;8.82;;;6.60;;
41219;SDS011;26951;47.338;9.196;2023-04-03T12:15:18;10.02;;;6.18;;
41219;SDS011;26951;47.338;9.196;2023-04-03T12:21:16;9.88;;;7.03;;
41219;SDS011;26951;47.338;9.196;2023-04-03T12:30:04;8.90;;;6.47;;
41219;SDS011;26951;47.338;9.196;2023-04-03T12:33:02;8.55;;;7.15;;
41219;SDS011;26951;47.338;9.196;2023-04-03T12:41:55;8.95;;;6.22;;
41219;SDS011;26951;47.338;9.196;2023-04-03T12:48:01;8.15;;;7.20;;
41219;SDS011;26951;47.338;9.196;2023-04-03T12:50:48;7.82;;;6.30;;
41219;SDS011;26951;47.338;9.196;2023-04-03T12:53:34;7.32;;;6.40;;
41219;SDS011;26951;47.338;9.196;2023-04-03T12:56:21;8.68;;;7.13;;
41219;SDS011;26951;47.338;9.196;2023-04-03T12:59:25;6.80;;;6.10;;
41219;SDS011;26951;47.338;9.196;2023-04-03T13:02:15;8.70;;;6.75;;
41219;SDS011;26951;47.338;9.196;2023-04-03T13:05:13;8.93;;;6.68;;
41219;SDS011;26951;47.338;9.196;2023-04-03T13:08:02;7.35;;;6.30;;
41219;SDS011;26951;47.338;9.196;2023-04-03T13:10:53;7.88;;;7.07;;
41219;SDS011;26951;47.338;9.196;2023-04-03T13:13:53;7.82;;;6.38;;
41219;SDS011;26951;47.338;9.196;2023-04-03T13:16:42;8.23;;;6.35;;
41219;SDS011;26951;47.338;9.196;2023-04-03T13:19:56;7.57;;;6.45;;
41219;SDS011;26951;47.338;9.196;2023-04-03T13:23:02;9.00;;;6.45;;
41219;SDS011;26951;47.338;9.196;2023-04-03T13:25:50;8.95;;;6.28;;
41219;SDS011;26951;47.338;9.196;2023-04-03T13:28:35;7.75;;;6.75;;
41219;SDS011;26951;47.338;9.196;2023-04-03T13:31:22;8.68;;;6.65;;
41219;SDS011;26951;47.338;9.196;2023-04-03T13:34:12;7.78;;;6.63;;
41219;SDS011;26951;47.338;9.196;2023-04-03T13:37:01;7.78;;;5.65;;
41219;SDS011;26951;47.338;9.196;2023-04-03T13:39:56;7.80;;;6.18;;
41219;SDS011;26951;47.338;9.196;2023-04-03T13:42:45;9.75;;;6.22;;
41219;SDS011;26951;47.338;9.196;2023-04-03T13:45:42;7.47;;;5.72;;
41219;SDS011;26951;47.338;9.196;2023-04-03T13:48:56;7.80;;;6.35;;
41219;SDS011;26951;47.338;9.196;2023-04-03T13:51:41;7.93;;;5.80;;
41219;SDS011;26951;47.338;9.196;2023-04-03T13:54:32;8.60;;;6.25;;
41219;SDS011;26951;47.338;9.196;2023-04-03T13:57:19;6.82;;;5.85;;
41219;SDS011;26951;47.338;9.196;2023-04-03T14:00:21;5.97;;;5.28;;
41219;SDS011;26951;47.338;9.196;2023-04-03T14:03:18;7.10;;;5.45;;
41219;SDS011;26951;47.338;9.196;2023-04-03T14:06:06;5.25;;;4.70;;
41219;SDS011;26951;47.338;9.196;2023-04-03T14:08:54;7.20;;;4.80;;
41219;SDS011;26951;47.338;9.196;2023-04-03T14:11:38;5.70;;;5.10;;
41219;SDS011;26951;47.338;9.196;2023-04-03T14:14:26;7.43;;;4.95;;
41219;SDS011;26951;47.338;9.196;2023-04-03T14:17:18;5.43;;;4.78;;
41219;SDS011;26951;47.338;9.196;2023-04-03T14:20:05;5.05;;;4.35;;
41219;SDS011;26951;47.338;9.196;2023-04-03T14:22:50;5.43;;;4.93;;
41219;SDS011;26951;47.338;9.196;2023-04-03T14:25:34;5.97;;;4.32;;
41219;SDS011;26951;47.338;9.196;2023-04-03T14:28:19;5.43;;;4.75;;
41219;SDS011;26951;47.338;9.196;2023-04-03T14:31:05;5.88;;;4.75;;
41219;SDS011;26951;47.338;9.196;2023-04-03T14:33:50;5.57;;;4.55;;
41219;SDS011;26951;47.338;9.196;2023-04-03T14:36:34;5.13;;;4.57;;
41219;SDS011;26951;47.338;9.196;2023-04-03T14:39:18;6.05;;;4.80;;
41219;SDS011;26951;47.338;9.196;2023-04-03T14:42:03;5.60;;;4.78;;
41219;SDS011;26951;47.338;9.196;2023-04-03T14:44:47;5.10;;;4.55;;
41219;SDS011;26951;47.338;9.196;2023-04-03T14:47:32;6.60;;;4.78;;
41219;SDS011;26951;47.338;9.196;2023-04-03T14:50:20;6.45;;;4.70;;
41219;SDS011;26951;47.338;9.196;2023-04-03T14:53:10;5.85;;;4.40;;
41219;SDS011;26951;47.338;9.196;2023-04-03T14:55:56;5.00;;;4.50;;
41219;SDS011;26951;47.338;9.196;2023-04-03T14:58:40;4.97;;;4.47;;
41219;SDS011;26951;47.338;9.196;2023-04-03T15:01:25;5.05;;;4.55;;
41219;SDS011;26951;47.338;9.196;2023-04-03T15:04:13;5.78;;;4.57;;
41219;SDS011;26951;47.338;9.196;2023-04-03T15:07:03;5.72;;;5.13;;
41219;SDS011;26951;47.338;9.196;2023-04-03T15:09:47;4.88;;;4.43;;
41219;SDS011;26951;47.338;9.196;2023-04-03T15:12:32;6.78;;;4.38;;
41219;SDS011;26951;47.338;9.196;2023-04-03T15:15:17;6.13;;;4.57;;
41219;SDS011;26951;47.338;9.196;2023-04-03T15:18:03;5.32;;;4.60;;
41219;SDS011;26951;47.338;9.196;2023-04-03T15:20:48;5.85;;;4.50;;
41219;SDS011;26951;47.338;9.196;2023-04-03T15:23:32;5.88;;;4.35;;
41219;SDS011;26951;47.338;9.196;2023-04-03T15:26:16;6.07;;;4.78;;
41219;SDS011;26951;47.338;9.196;2023-04-03T15:29:01;5.05;;;4.25;;
41219;SDS011;26951;47.338;9.196;2023-04-03T15:31:45;6.13;;;4.47;;
41219;SDS011;26951;47.338;9.196;2023-04-03T15:34:29;5.32;;;4.57;;
41219;SDS011;26951;47.338;9.196;2023-04-03T15:37:14;8.65;;;5.05;;
41219;SDS011;26951;47.338;9.196;2023-04-03T15:39:58;7.50;;;4.88;;
41219;SDS011;26951;47.338;9.196;2023-04-03T15:42:42;6.68;;;5.03;;
41219;SDS011;26951;47.338;9.196;2023-04-03T15:45:28;6.65;;;5.05;;
41219;SDS011;26951;47.338;9.196;2023-04-03T15:48:14;6.05;;;5.13;;
41219;SDS011;26951;47.338;9.196;2023-04-03T15:50:59;5.95;;;4.57;;
41219;SDS011;26951;47.338;9.196;2023-04-03T15:53:44;7.55;;;4.97;;
41219;SDS011;26951;47.338;9.196;2023-04-03T15:56:28;5.65;;;4.63;;
41219;SDS011;26951;47.338;9.196;2023-04-03T15:59:12;5.57;;;4.88;;
41219;SDS011;26951;47.338;9.196;2023-04-03T16:01:56;6.75;;;4.95;;
41219;SDS011;26951;47.338;9.196;2023-04-03T16:07:26;5.80;;;4.80;;
41219;SDS011;26951;47.338;9.196;2023-04-03T16:10:11;5.80;;;4.43;;
41219;SDS011;26951;47.338;9.196;2023-04-03T16:12:56;5.80;;;5.13;;
41219;SDS011;26951;47.338;9.196;2023-04-03T16:15:40;5.18;;;4.68;;
41219;SDS011;26951;47.338;9.196;2023-04-03T16:18:25;5.32;;;4.68;;
41219;SDS011;26951;47.338;9.196;2023-04-03T16:21:10;5.05;;;4.55;;
41219;SDS011;26951;47.338;9.196;2023-04-03T16:23:56;5.00;;;4.03;;
41219;SDS011;26951;47.338;9.196;2023-04-03T16:26:42;6.88;;;4.80;;
41219;SDS011;26951;47.338;9.196;2023-04-03T16:29:26;6.35;;;4.88;;
41219;SDS011;26951;47.338;9.196;2023-04-03T16:32:10;5.68;;;4.50;;
41219;SDS011;26951;47.338;9.196;2023-04-03T16:34:55;6.60;;;5.93;;
41219;SDS011;26951;47.338;9.196;2023-04-03T16:37:40;6.75;;;5.22;;
41219;SDS011;26951;47.338;9.196;2023-04-03T16:40:24;5.72;;;4.80;;
41219;SDS011;26951;47.338;9.196;2023-04-03T16:43:09;5.13;;;4.63;;
41219;SDS011;26951;47.338;9.196;2023-04-03T16:45:54;7.38;;;5.03;;
41219;SDS011;26951;47.338;9.196;2023-04-03T16:48:38;7.07;;;4.32;;
41219;SDS011;26951;47.338;9.196;2023-04-03T16:51:23;5.72;;;5.07;;
41219;SDS011;26951;47.338;9.196;2023-04-03T16:54:07;4.78;;;4.32;;
41219;SDS011;26951;47.338;9.196;2023-04-03T16:56:54;5.20;;;4.70;;
41219;SDS011;26951;47.338;9.196;2023-04-03T16:59:38;5.28;;;4.68;;
41219;SDS011;26951;47.338;9.196;2023-04-03T17:02:22;5.07;;;4.57;;
41219;SDS011;26951;47.338;9.196;2023-04-03T17:05:10;6.50;;;5.00;;
41219;SDS011;26951;47.338;9.196;2023-04-03T17:07:54;6.97;;;5.10;;
41219;SDS011;26951;47.338;9.196;2023-04-03T17:10:38;5.88;;;5.18;;
41219;SDS011;26951;47.338;9.196;2023-04-03T17:13:22;5.63;;;4.78;;
41219;SDS011;26951;47.338;9.196;2023-04-03T17:16:07;7.30;;;5.10;;
41219;SDS011;26951;47.338;9.196;2023-04-03T17:18:54;4.70;;;4.28;;
41219;SDS011;26951;47.338;9.196;2023-04-03T17:21:39;5.80;;;4.97;;
41219;SDS011;26951;47.338;9.196;2023-04-03T17:24:23;5.15;;;4.65;;
41219;SDS011;26951;47.338;9.196;2023-04-03T17:27:08;5.25;;;4.55;;
41219;SDS011;26951;47.338;9.196;2023-04-03T17:29:52;5.75;;;4.88;;
41219;SDS011;26951;47.338;9.196;2023-04-03T17:32:37;5.78;;;4.43;;
41219;SDS011;26951;47.338;9.196;2023-04-03T17:35:21;5.38;;;4.38;;
41219;SDS011;26951;47.338;9.196;2023-04-03T17:38:05;5.30;;;4.80;;
41219;SDS011;26951;47.338;9.196;2023-04-03T17:40:49;6.18;;;5.07;;
41219;SDS011;26951;47.338;9.196;2023-04-03T17:43:34;6.40;;;4.78;;
41219;SDS011;26951;47.338;9.196;2023-04-03T17:46:19;7.37;;;5.07;;
41219;SDS011;26951;47.338;9.196;2023-04-03T17:49:03;6.40;;;5.20;;
41219;SDS011;26951;47.338;9.196;2023-04-03T17:51:48;5.97;;;4.87;;
41219;SDS011;26951;47.338;9.196;2023-04-03T17:54:32;7.50;;;5.25;;
41219;SDS011;26951;47.338;9.196;2023-04-03T17:57:16;5.80;;;4.97;;
41219;SDS011;26951;47.338;9.196;2023-04-03T18:00:00;5.18;;;4.65;;
41219;SDS011;26951;47.338;9.196;2023-04-03T18:02:44;6.78;;;4.95;;
41219;SDS011;26951;47.338;9.196;2023-04-03T18:05:28;5.85;;;5.22;;